Time;durP1;ratioP1;P1;durP2;ratioP2;P2;SDS_P1;SDS_P2;PMS_P1;PMS_P2;Temp;Humidity;BMP_temperature;BMP_pressure;BME280_temperature;BME280_humidity;BME280_pressure;Samples;Min_cycle;Max_cycle;Signal;HPM_P1;HPM_P2
2023/11/06 00:01:02;;;;;;;3.13;0.60;;;;;;;11.05;59.85;93596.53;6153031;23;20179;-83
2023/11/06 00:03:29;;;;;;;1.90;0.60;;;;;;;11.01;59.88;93602.34;6152693;23;20759;-83
2023/11/06 00:05:55;;;;;;;0.90;0.60;;;;;;;11.05;59.65;93604.25;6152724;23;20202;-83
2023/11/06 00:08:24;;;;;;;1.13;0.80;;;;;;;11.05;59.62;93601.69;6152867;23;20175;-83
2023/11/06 00:10:53;;;;;;;1.17;0.90;;;;;;;11.08;59.87;93606.38;6153534;23;20186;-83
2023/11/06 00:13:20;;;;;;;3.83;0.80;;;;;;;11.08;59.53;93605.59;6153284;23;20685;-83
2023/11/06 00:15:47;;;;;;;1.33;0.70;;;;;;;11.05;59.63;93598.31;6153497;23;20179;-83
2023/11/06 00:18:13;;;;;;;1.13;0.70;;;;;;;11.07;59.95;93602.25;6153682;23;20197;-83
2023/11/06 00:20:40;;;;;;;0.63;0.60;;;;;;;11.03;60.01;93621.72;6153958;23;20183;-83
2023/11/06 00:23:07;;;;;;;0.60;0.60;;;;;;;11.02;59.98;93633.03;6152547;23;20205;-83
2023/11/06 00:25:33;;;;;;;1.50;0.70;;;;;;;10.99;60.11;93653.28;6153604;23;20199;-83
2023/11/06 00:28:01;;;;;;;3.27;1.00;;;;;;;11.06;60.14;93651.38;6153666;23;20175;-84
2023/11/06 00:30:28;;;;;;;0.87;0.70;;;;;;;11.01;60.69;93677.03;6153494;23;20186;-83
2023/11/06 00:32:54;;;;;;;1.80;0.73;;;;;;;11.00;60.65;93673.66;6153370;23;20278;-82
2023/11/06 00:35:25;;;;;;;1.40;0.70;;;;;;;11.04;60.72;93677.38;6153347;23;20171;-83
2023/11/06 00:37:51;;;;;;;1.10;0.60;;;;;;;11.04;60.94;93699.75;6157228;23;20163;-83
2023/11/06 00:40:19;;;;;;;0.60;0.60;;;;;;;11.01;60.88;93697.63;6154186;23;20213;-83
2023/11/06 00:42:45;;;;;;;1.93;0.70;;;;;;;11.01;61.40;93713.84;6153399;23;20209;-83
2023/11/06 00:45:16;;;;;;;2.20;0.70;;;;;;;11.02;61.30;93719.78;6153389;23;20202;-83
2023/11/06 00:47:43;;;;;;;1.40;0.80;;;;;;;11.03;61.48;93721.34;6153854;23;20224;-83
2023/11/06 00:50:10;;;;;;;2.20;0.63;;;;;;;11.03;61.66;93753.03;6153149;23;20178;-83
2023/11/06 00:52:37;;;;;;;0.70;0.60;;;;;;;11.04;61.35;93756.41;6153556;23;20651;-83
2023/11/06 00:55:04;;;;;;;1.03;0.70;;;;;;;11.06;61.47;93764.69;6154404;23;20171;-84
2023/11/06 00:57:30;;;;;;;0.63;0.60;;;;;;;11.07;61.89;93774.00;6154199;23;20187;-83
2023/11/06 00:59:59;;;;;;;0.80;0.60;;;;;;;11.03;62.07;93801.97;6154718;23;20175;-83
2023/11/06 01:02:28;;;;;;;2.27;0.80;;;;;;;11.01;62.62;93813.50;6155124;23;20218;-83
2023/11/06 01:04:55;;;;;;;1.70;0.60;;;;;;;11.00;62.69;93817.84;6154258;23;20194;-83
2023/11/06 01:07:21;;;;;;;0.47;0.43;;;;;;;11.03;62.92;93826.94;6153944;23;20661;-83
2023/11/06 01:09:50;;;;;;;0.70;0.60;;;;;;;10.89;63.17;93861.63;6154560;23;20179;-83
2023/11/06 01:12:16;;;;;;;1.27;0.80;;;;;;;10.87;63.51;93873.94;6155561;23;20829;-83
2023/11/06 01:14:42;;;;;;;1.43;0.60;;;;;;;10.91;63.69;93886.16;6155508;23;20510;-83
2023/11/06 01:17:12;;;;;;;0.80;0.67;;;;;;;10.96;63.59;93883.69;6155692;23;20186;-83
2023/11/06 01:19:42;;;;;;;1.30;0.80;;;;;;;10.90;63.18;93866.56;6155505;23;20202;-83
2023/11/06 01:22:11;;;;;;;0.50;0.50;;;;;;;10.87;63.43;93877.28;6154760;23;20210;-83
2023/11/06 01:24:39;;;;;;;0.50;0.43;;;;;;;10.93;63.47;93879.00;6155102;23;20199;-83
2023/11/06 01:27:05;;;;;;;0.97;0.60;;;;;;;10.87;63.57;93855.91;6154872;23;20175;-83
2023/11/06 01:29:32;;;;;;;1.67;0.60;;;;;;;10.85;63.38;93876.72;6154501;23;20189;-83
2023/11/06 01:31:58;;;;;;;0.90;0.50;;;;;;;10.80;63.40;93863.72;6155417;23;20210;-83
2023/11/06 01:34:25;;;;;;;0.67;0.50;;;;;;;10.82;63.33;93851.41;6155413;23;20206;-83
2023/11/06 01:36:53;;;;;;;0.50;0.50;;;;;;;10.75;63.11;93873.91;6155239;23;20209;-83
2023/11/06 01:39:19;;;;;;;2.47;0.67;;;;;;;10.70;63.17;93878.91;6154623;23;20183;-83
2023/11/06 01:41:46;;;;;;;1.87;0.60;;;;;;;10.77;63.42;93871.09;6154403;23;20203;-83
2023/11/06 01:44:12;;;;;;;1.13;0.70;;;;;;;10.77;63.09;93859.03;6154530;23;20175;-82
2023/11/06 01:46:39;;;;;;;2.07;0.80;;;;;;;10.79;62.73;93864.72;6152305;23;20690;-82
2023/11/06 01:49:07;;;;;;;1.03;0.60;;;;;;;10.82;62.84;93845.47;6153683;23;20178;-82
2023/11/06 01:51:35;;;;;;;1.43;0.70;;;;;;;10.87;62.26;93855.91;6152453;23;20178;-83
2023/11/06 01:54:05;;;;;;;1.03;0.67;;;;;;;10.82;62.43;93827.44;6152349;23;20212;-82
2023/11/06 01:56:35;;;;;;;1.37;1.00;;;;;;;10.82;62.49;93837.75;6152624;23;20179;-82
2023/11/06 01:59:04;;;;;;;1.03;0.60;;;;;;;10.85;62.50;93837.31;6152921;23;20167;-82
2023/11/06 02:01:30;;;;;;;2.80;0.63;;;;;;;10.84;62.48;93841.69;6152796;23;20178;-82
2023/11/06 02:03:57;;;;;;;1.13;0.67;;;;;;;10.85;62.44;93838.09;6153118;23;20185;-83
2023/11/06 02:06:26;;;;;;;0.90;0.50;;;;;;;10.85;62.49;93843.25;6152393;23;20206;-82
2023/11/06 02:08:52;;;;;;;0.90;0.63;;;;;;;10.86;62.57;93854.34;6153144;23;20554;-82
2023/11/06 02:11:20;;;;;;;0.60;0.60;;;;;;;10.76;63.03;93869.53;6151728;23;20178;-82
2023/11/06 02:13:47;;;;;;;1.97;0.60;;;;;;;10.75;62.73;93873.91;6153214;23;20199;-83
2023/11/06 02:16:13;;;;;;;0.63;0.57;;;;;;;10.79;63.04;93889.66;6152957;23;20237;-83
2023/11/06 02:18:43;;;;;;;2.23;0.70;;;;;;;10.82;63.15;93890.03;6152843;23;20182;-82
2023/11/06 02:21:10;;;;;;;1.40;0.60;;;;;;;10.79;63.41;93920.56;6152573;23;20179;-82
2023/11/06 02:23:38;;;;;;;0.60;0.57;;;;;;;10.75;63.82;93940.81;6151694;23;20205;-83
2023/11/06 02:26:06;;;;;;;1.50;0.60;;;;;;;10.77;64.15;93967.13;6152143;23;20199;-82
2023/11/06 02:28:33;;;;;;;2.47;0.80;;;;;;;10.70;64.40;93954.34;6152138;23;20689;-82
2023/11/06 02:30:59;;;;;;;1.17;0.60;;;;;;;10.67;64.52;93983.06;6152163;23;20182;-82
2023/11/06 02:33:28;;;;;;;2.17;0.70;;;;;;;10.69;64.96;94000.88;6151912;23;20199;-82
2023/11/06 02:35:54;;;;;;;2.27;0.70;;;;;;;10.73;64.92;94013.09;6152242;23;20171;-81
2023/11/06 02:38:23;;;;;;;0.70;0.60;;;;;;;10.77;65.12;94021.19;6152084;23;20667;-82
2023/11/06 02:40:54;;;;;;;1.60;0.80;;;;;;;10.85;64.84;94002.84;6151669;23;20187;-83
2023/11/06 02:43:21;;;;;;;0.93;0.60;;;;;;;10.84;64.79;94023.66;6151451;23;20199;-82
2023/11/06 02:45:48;;;;;;;0.73;0.70;;;;;;;10.81;65.04;94019.75;6152300;23;20241;-83
2023/11/06 02:48:14;;;;;;;3.70;0.90;;;;;;;10.85;65.13;94031.19;6152081;23;20175;-83
2023/11/06 02:50:41;;;;;;;1.73;0.90;;;;;;;10.84;64.91;94039.91;6151868;23;20366;-82
2023/11/06 02:53:07;;;;;;;0.83;0.50;;;;;;;10.76;65.51;94057.44;6151712;23;20206;-83
2023/11/06 02:55:33;;;;;;;1.90;0.70;;;;;;;10.70;65.88;94061.66;6152035;23;20294;-82
2023/11/06 02:58:01;;;;;;;2.93;0.70;;;;;;;10.67;65.89;94077.53;6152067;23;20178;-82
2023/11/06 03:00:28;;;;;;;0.70;0.67;;;;;;;10.65;66.19;94089.81;6151858;23;20179;-83
2023/11/06 03:02:54;;;;;;;1.50;0.70;;;;;;;10.74;65.75;94088.53;6151591;23;20209;-82
2023/11/06 03:05:22;;;;;;;1.13;0.67;;;;;;;10.72;65.90;94078.47;6152007;23;20203;-83
2023/11/06 03:07:48;;;;;;;1.03;0.70;;;;;;;10.74;65.61;94083.41;6152063;23;20507;-83
2023/11/06 03:10:15;;;;;;;0.80;0.60;;;;;;;10.76;65.50;94080.63;6151551;23;20185;-82
2023/11/06 03:12:42;;;;;;;1.53;0.70;;;;;;;10.67;66.16;94096.31;6151827;23;20203;-82
2023/11/06 03:15:11;;;;;;;1.27;0.57;;;;;;;10.61;66.12;94104.88;6151806;23;20171;-82
2023/11/06 03:17:38;;;;;;;1.53;0.70;;;;;;;10.59;66.57;94121.53;6151239;23;20825;-82
2023/11/06 03:20:10;;;;;;;0.93;0.80;;;;;;;10.61;66.69;94138.34;6152210;23;20418;-83
2023/11/06 03:22:37;;;;;;;0.87;0.60;;;;;;;10.60;66.51;94131.63;6151517;23;20199;-82
2023/11/06 03:25:04;;;;;;;1.30;0.50;;;;;;;10.57;66.66;94129.50;6150638;23;20650;-83
2023/11/06 03:27:30;;;;;;;1.37;0.80;;;;;;;10.60;66.44;94129.03;6151649;23;20820;-82
2023/11/06 03:29:57;;;;;;;0.87;0.77;;;;;;;10.66;66.40;94135.94;6152115;23;20515;-82
2023/11/06 03:32:27;;;;;;;1.53;0.80;;;;;;;10.65;66.47;94125.84;6151020;23;20199;-82
2023/11/06 03:34:55;;;;;;;1.67;0.70;;;;;;;10.55;66.57;94130.69;6151996;23;20159;-82
2023/11/06 03:37:24;;;;;;;2.20;0.70;;;;;;;10.56;66.80;94138.22;6151511;23;20249;-81
2023/11/06 03:39:50;;;;;;;1.07;0.70;;;;;;;10.54;66.79;94135.06;6152265;23;20694;-83
2023/11/06 03:42:19;;;;;;;1.67;0.70;;;;;;;10.52;66.72;94149.13;6151866;23;20199;-83
2023/11/06 03:44:46;;;;;;;1.33;0.70;;;;;;;10.46;67.00;94155.09;6151558;23;20179;-84
2023/11/06 03:47:12;;;;;;;1.03;0.80;;;;;;;10.46;66.89;94165.41;6150687;23;20515;-82
2023/11/06 03:49:40;;;;;;;1.47;0.83;;;;;;;10.51;67.00;94163.00;6151311;23;20182;-82
2023/11/06 03:52:10;;;;;;;1.20;0.70;;;;;;;10.46;66.92;94155.91;6150735;23;20210;-82
2023/11/06 03:54:37;;;;;;;1.10;0.63;;;;;;;10.48;66.98;94163.41;6151624;23;20163;-82
2023/11/06 03:57:03;;;;;;;1.90;0.83;;;;;;;10.49;67.15;94177.84;6152070;23;20171;-82
2023/11/06 03:59:30;;;;;;;1.07;0.67;;;;;;;10.42;67.39;94161.66;6151476;23;20248;-81
2023/11/06 04:01:56;;;;;;;1.60;0.83;;;;;;;10.38;67.21;94179.34;6151387;23;20199;-81
2023/11/06 04:04:23;;;;;;;1.10;0.60;;;;;;;10.45;67.28;94169.75;6150973;23;20174;-81
2023/11/06 04:06:51;;;;;;;1.17;0.80;;;;;;;10.42;67.42;94180.47;6151127;23;20205;-83
2023/11/06 04:09:17;;;;;;;1.20;0.70;;;;;;;10.41;67.46;94181.47;6151653;23;20182;-82
2023/11/06 04:11:45;;;;;;;1.20;0.63;;;;;;;10.44;67.19;94172.53;6151782;23;20182;-82
2023/11/06 04:14:11;;;;;;;1.10;0.60;;;;;;;10.48;67.23;94171.91;6151285;23;20179;-82
2023/11/06 04:16:38;;;;;;;1.17;0.80;;;;;;;10.43;66.95;94160.66;6151781;23;20175;-82
2023/11/06 04:19:04;;;;;;;1.13;0.80;;;;;;;10.47;66.70;94167.78;6151358;23;20178;-82
2023/11/06 04:21:31;;;;;;;1.40;0.67;;;;;;;10.38;66.97;94164.69;6151486;23;20241;-81
2023/11/06 04:23:59;;;;;;;2.40;0.80;;;;;;;10.43;67.13;94171.75;6151524;23;20245;-82
2023/11/06 04:26:26;;;;;;;0.73;0.67;;;;;;;10.46;66.88;94171.34;6151591;23;20206;-82
2023/11/06 04:28:52;;;;;;;0.60;0.57;;;;;;;10.47;66.77;94162.63;6151995;23;20783;-82
2023/11/06 04:31:18;;;;;;;2.47;0.83;;;;;;;10.50;66.59;94162.19;6151789;23;20187;-83
2023/11/06 04:33:45;;;;;;;2.77;0.83;;;;;;;10.49;66.56;94157.25;6152703;23;20202;-82
2023/11/06 04:36:12;;;;;;;2.07;0.73;;;;;;;10.50;66.54;94166.56;6152697;23;20190;-81
2023/11/06 04:38:39;;;;;;;1.83;0.70;;;;;;;10.48;66.60;94168.56;6153339;23;20237;-82
2023/11/06 04:41:08;;;;;;;1.67;0.70;;;;;;;10.47;66.49;94166.97;6153615;23;20178;-82
2023/11/06 04:43:35;;;;;;;3.23;0.70;;;;;;;10.49;66.42;94167.56;6153336;23;20195;-82
2023/11/06 04:46:02;;;;;;;2.90;0.70;;;;;;;10.47;66.42;94161.84;6153312;23;20198;-83
2023/11/06 04:48:31;;;;;;;1.57;0.90;;;;;;;10.45;66.72;94164.63;6152604;23;20242;-83
2023/11/06 04:50:58;;;;;;;1.73;0.80;;;;;;;10.47;66.62;94170.34;6153211;23;20179;-82
2023/11/06 04:53:24;;;;;;;0.67;0.67;;;;;;;10.45;66.55;94172.34;6151848;23;20526;-82
2023/11/06 04:55:51;;;;;;;2.03;0.70;;;;;;;10.45;66.76;94181.84;6153348;23;20638;-83
2023/11/06 04:58:18;;;;;;;1.53;0.77;;;;;;;10.51;66.60;94186.16;6153049;23;20635;-82
2023/11/06 05:00:45;;;;;;;1.00;0.70;;;;;;;10.47;66.59;94179.84;6153381;23;20186;-83
2023/11/06 05:03:12;;;;;;;0.80;0.70;;;;;;;10.44;66.66;94196.47;6154789;23;20195;-83
2023/11/06 05:05:40;;;;;;;0.90;0.60;;;;;;;10.44;66.93;94196.47;6155504;23;20194;-82
2023/11/06 05:08:07;;;;;;;2.10;1.17;;;;;;;10.44;66.86;94201.63;6154755;23;20574;-83
2023/11/06 05:10:33;;;;;;;2.30;0.80;;;;;;;10.43;66.85;94199.25;6155915;23;20186;-83
2023/11/06 05:12:59;;;;;;;1.33;0.70;;;;;;;10.44;66.83;94206.78;6154602;23;20196;-83
2023/11/06 05:15:29;;;;;;;1.87;0.80;;;;;;;10.42;67.06;94203.63;6154411;23;20202;-84
2023/11/06 05:17:59;;;;;;;2.10;0.70;;;;;;;10.45;66.84;94210.94;6154288;23;20175;-83
2023/11/06 05:20:26;;;;;;;2.47;1.13;;;;;;;10.49;66.70;94217.25;6153992;23;20246;-83
2023/11/06 05:22:52;;;;;;;2.07;0.80;;;;;;;10.42;66.87;94220.84;6154026;23;20195;-84
2023/11/06 05:25:19;;;;;;;1.93;0.97;;;;;;;10.38;67.03;94223.84;6152126;23;20468;-82
2023/11/06 05:27:45;;;;;;;1.90;0.87;;;;;;;10.35;67.12;94237.13;6150405;23;20205;-82
2023/11/06 05:30:12;;;;;;;1.00;0.67;;;;;;;10.38;67.25;94241.88;6153262;23;20176;-82
2023/11/06 05:32:40;;;;;;;1.20;0.80;;;;;;;10.26;67.33;94253.00;6153024;23;20234;-83
2023/11/06 05:35:08;;;;;;;0.90;0.80;;;;;;;10.33;67.07;94253.75;6152572;23;20178;-82
2023/11/06 05:37:34;;;;;;;1.13;0.70;;;;;;;10.41;67.21;94239.84;6152369;23;20175;-83
2023/11/06 05:40:01;;;;;;;1.13;0.80;;;;;;;10.42;67.14;94247.34;6152950;23;20179;-82
2023/11/06 05:42:28;;;;;;;1.73;0.80;;;;;;;10.34;67.59;94268.22;6152396;23;20253;-80
2023/11/06 05:44:54;;;;;;;1.30;0.90;;;;;;;10.41;67.29;94274.09;6151813;23;20186;-82
2023/11/06 05:47:21;;;;;;;1.80;0.80;;;;;;;10.41;67.38;94271.50;6156145;23;20201;-84
2023/11/06 05:49:51;;;;;;;1.80;0.80;;;;;;;10.41;67.38;94276.66;6163768;23;20186;-84
2023/11/06 05:52:17;;;;;;;1.87;0.90;;;;;;;10.38;67.67;94292.53;6162532;23;20698;-84
2023/11/06 05:54:44;;;;;;;1.87;0.90;;;;;;;10.41;67.54;94293.88;6164887;23;20630;-85
2023/11/06 05:57:10;;;;;;;1.40;0.77;;;;;;;10.39;67.81;94301.81;6163674;23;20205;-84
2023/11/06 05:59:40;;;;;;;1.57;0.90;;;;;;;10.36;68.11;94315.09;6159394;23;20189;-84
2023/11/06 06:02:08;;;;;;;1.60;0.97;;;;;;;10.39;68.19;94325.75;6157651;23;20579;-84
2023/11/06 06:04:34;;;;;;;1.27;0.73;;;;;;;10.36;68.37;94325.38;6163778;23;20294;-84
2023/11/06 06:07:03;;;;;;;1.37;0.90;;;;;;;10.26;68.71;94335.31;6164299;23;20225;-84
2023/11/06 06:09:32;;;;;;;1.07;0.80;;;;;;;10.35;68.66;94342.59;6165705;23;20178;-85
2023/11/06 06:11:59;;;;;;;1.83;0.90;;;;;;;10.32;68.86;94344.78;6161429;23;20194;-84
2023/11/06 06:14:25;;;;;;;0.93;0.70;;;;;;;10.39;68.72;94348.91;6162435;23;20233;-84
2023/11/06 06:16:52;;;;;;;2.90;1.00;;;;;;;10.38;68.59;94342.19;6162871;23;20686;-85
2023/11/06 06:19:23;;;;;;;2.33;1.00;;;;;;;10.45;68.25;94341.34;6163850;23;20179;-84
2023/11/06 06:21:50;;;;;;;1.90;1.07;;;;;;;10.34;68.75;94360.81;6152573;23;20159;-84
2023/11/06 06:24:18;;;;;;;2.27;1.30;;;;;;;10.35;68.58;94377.84;6150500;23;20175;-84
2023/11/06 06:26:45;;;;;;;1.97;1.10;;;;;;;10.39;68.78;94371.28;6151253;23;20202;-84
2023/11/06 06:29:14;;;;;;;4.30;2.03;;;;;;;10.39;68.85;94379.78;6150198;23;20179;-85
2023/11/06 06:31:42;;;;;;;2.97;1.10;;;;;;;10.37;68.72;94376.63;6150914;23;20175;-84
2023/11/06 06:34:13;;;;;;;1.47;1.00;;;;;;;10.41;68.79;94383.94;6151471;23;20167;-85
2023/11/06 06:36:40;;;;;;;2.37;1.30;;;;;;;10.41;68.68;94378.78;6153595;23;20178;-83
2023/11/06 06:39:06;;;;;;;3.57;1.40;;;;;;;10.49;68.81;94387.06;6157377;23;20275;-84
2023/11/06 06:41:34;;;;;;;5.23;1.50;;;;;;;10.55;68.17;94368.25;6155120;23;20201;-84
2023/11/06 06:44:01;;;;;;;3.37;1.40;;;;;;;10.53;68.41;94367.66;6156646;23;20182;-84
2023/11/06 06:46:27;;;;;;;2.97;1.63;;;;;;;10.54;68.19;94371.00;6156015;23;20205;-84
2023/11/06 06:48:55;;;;;;;2.93;1.30;;;;;;;10.53;67.97;94375.38;6154106;23;20171;-84
2023/11/06 06:51:21;;;;;;;2.57;1.30;;;;;;;10.67;67.60;94376.88;6154607;23;20698;-83
2023/11/06 06:53:49;;;;;;;3.37;1.67;;;;;;;11.01;66.49;94331.88;6154198;23;20207;-84
2023/11/06 06:56:16;;;;;;;3.80;1.40;;;;;;;11.40;65.30;94278.44;6154066;23;20237;-87
2023/11/06 06:58:44;;;;;;;3.37;1.60;;;;;;;11.84;63.48;94218.13;6154906;23;20179;-84
2023/11/06 07:01:10;;;;;;;2.73;1.50;;;;;;;12.28;62.64;94177.44;6154080;23;20598;-84
2023/11/06 07:03:37;;;;;;;7.53;2.30;;;;;;;12.51;61.64;94123.25;6154427;23;20202;-84
2023/11/06 07:06:06;;;;;;;6.47;1.80;;;;;;;12.88;60.18;94079.91;6155103;23;20659;-84
2023/11/06 07:08:33;;;;;;;3.57;1.30;;;;;;;12.97;59.88;94050.13;6156764;23;20177;-83
2023/11/06 07:10:59;;;;;;;4.83;1.37;;;;;;;12.89;59.88;94036.81;6156170;23;20182;-84
2023/11/06 07:13:26;;;;;;;2.33;1.57;;;;;;;13.05;59.67;94044.63;6155102;23;20206;-85
2023/11/06 07:15:53;;;;;;;5.03;1.40;;;;;;;12.99;59.53;94034.41;6156816;23;20182;-84
2023/11/06 07:18:20;;;;;;;2.93;1.20;;;;;;;12.99;59.84;94053.28;6154301;23;20253;-84
2023/11/06 07:20:47;;;;;;;3.83;1.00;;;;;;;12.99;60.11;94076.53;6155516;23;20245;-84
2023/11/06 07:23:13;;;;;;;3.33;1.30;;;;;;;12.95;60.15;94083.16;6152138;23;20202;-85
2023/11/06 07:25:40;;;;;;;1.90;0.97;;;;;;;13.06;59.63;94086.75;6155182;23;20179;-84
2023/11/06 07:28:06;;;;;;;2.23;0.90;;;;;;;13.18;59.49;94066.84;6152826;23;20788;-84
2023/11/06 07:30:33;;;;;;;2.90;1.10;;;;;;;13.28;59.83;94074.78;6152738;23;20190;-84
2023/11/06 07:33:02;;;;;;;5.43;3.37;;;;;;;13.41;59.39;94064.19;6151341;23;20203;-84
2023/11/06 07:35:29;;;;;;;3.43;2.80;;;;;;;13.50;59.05;94051.66;6151865;23;20210;-87
2023/11/06 07:37:56;;;;;;;3.00;1.40;;;;;;;13.58;59.02;94055.69;6151846;23;20174;-84
2023/11/06 07:40:22;;;;;;;3.30;1.47;;;;;;;13.62;58.65;94036.88;6151272;23;20191;-84
2023/11/06 07:42:49;;;;;;;2.27;1.17;;;;;;;13.54;58.63;94028.72;6151103;23;20202;-84
2023/11/06 07:45:15;;;;;;;1.63;1.10;;;;;;;13.59;58.35;94039.16;6151220;23;20511;-84
2023/11/06 07:47:42;;;;;;;2.80;1.03;;;;;;;13.75;58.48;94033.22;6152157;23;20199;-83
2023/11/06 07:50:10;;;;;;;1.33;0.93;;;;;;;13.77;57.77;94010.47;6150764;23;20261;-83
2023/11/06 07:52:37;;;;;;;2.60;1.03;;;;;;;13.94;57.69;94006.09;6151864;23;20533;-85
2023/11/06 07:55:08;;;;;;;4.10;1.40;;;;;;;14.09;56.92;93975.25;6151514;23;20170;-84
2023/11/06 07:57:34;;;;;;;1.90;1.03;;;;;;;14.10;56.82;93971.66;6150472;23;20245;-84
2023/11/06 08:00:02;;;;;;;1.88;0.80;;;;;;;14.21;56.80;93964.84;6149862;23;20511;-84
2023/11/06 08:02:28;;;;;;;1.73;0.90;;;;;;;14.20;56.64;93967.66;6146092;23;20248;-83
2023/11/06 08:04:56;;;;;;;1.17;0.80;;;;;;;14.33;56.29;93955.16;6148742;23;20185;-85
2023/11/06 08:07:24;;;;;;;1.15;0.80;;;;;;;14.46;55.93;93947.06;6148184;23;20281;-85
2023/11/06 08:09:52;;;;;;;1.30;0.90;;;;;;;14.68;55.64;93933.31;6148164;23;20237;-84
2023/11/06 08:12:19;;;;;;;1.97;1.10;;;;;;;14.66;55.31;93917.22;6145967;23;20225;-86
2023/11/06 08:14:45;;;;;;;1.20;0.98;;;;;;;14.42;55.36;93909.75;6146540;23;20237;-84
2023/11/06 08:17:13;;;;;;;1.90;0.90;;;;;;;14.41;56.19;93959.16;6148654;23;20530;-84
2023/11/06 08:19:41;;;;;;;1.27;0.80;;;;;;;14.58;55.81;93953.94;6150955;23;20181;-84
2023/11/06 08:22:23;;;;;;;2.83;0.90;;;;;;;14.60;55.47;93937.13;6149717;23;20201;-84
2023/11/06 08:24:53;;;;;;;2.88;1.00;;;;;;;14.64;55.31;93940.00;6148079;23;20155;-85
2023/11/06 08:27:19;;;;;;;1.45;0.80;;;;;;;14.37;55.71;93932.94;6146591;23;20195;-84
2023/11/06 08:29:49;;;;;;;0.70;0.70;;;;;;;14.31;56.12;93962.38;6146653;23;20175;-84
2023/11/06 08:32:16;;;;;;;2.40;1.05;;;;;;;14.49;56.06;93963.91;6147100;23;20733;-85
2023/11/06 08:34:43;;;;;;;1.17;0.90;;;;;;;14.61;56.11;93969.78;6148951;23;20202;-84
2023/11/06 08:37:11;;;;;;;1.67;0.80;;;;;;;14.62;55.45;93952.44;6146408;23;20508;-84
2023/11/06 08:39:41;;;;;;;3.83;1.20;;;;;;;14.72;55.29;93958.50;6146771;23;20653;-84
2023/11/06 08:42:09;;;;;;;1.15;0.90;;;;;;;14.54;55.29;93937.31;6147489;23;20202;-84
2023/11/06 08:44:35;;;;;;;0.88;0.68;;;;;;;14.60;55.70;93964.84;6148192;23;20190;-84
2023/11/06 08:47:02;;;;;;;1.83;1.00;;;;;;;14.72;55.42;93960.31;6150209;23;20194;-84
2023/11/06 08:49:29;;;;;;;0.80;0.80;;;;;;;14.75;55.52;93962.44;6149149;23;20218;-84
2023/11/06 08:51:56;;;;;;;1.92;0.88;;;;;;;14.71;54.81;93951.75;6145269;23;20195;-84
2023/11/06 08:54:22;;;;;;;2.15;0.90;;;;;;;14.87;55.25;93960.47;6146621;23;20166;-84
2023/11/06 08:56:49;;;;;;;3.65;0.65;;;;;;;14.89;55.28;93968.78;6145827;23;20198;-84
2023/11/06 08:59:17;;;;;;;1.58;0.90;;;;;;;14.85;54.98;93960.72;6147810;23;20514;-84
2023/11/06 09:01:47;;;;;;;1.10;0.80;;;;;;;14.78;55.21;93965.31;6149116;23;20182;-84
2023/11/06 09:04:14;;;;;;;2.92;0.90;;;;;;;14.86;54.89;93964.88;6149713;23;20183;-84
2023/11/06 09:06:40;;;;;;;0.80;0.70;;;;;;;14.69;54.96;93947.84;6149721;23;20174;-84
2023/11/06 09:09:08;;;;;;;1.60;0.80;;;;;;;14.87;55.28;93981.22;6148945;23;20174;-84
2023/11/06 09:11:34;;;;;;;0.70;0.70;;;;;;;14.62;54.76;93940.28;6146133;23;20179;-85
2023/11/06 09:14:03;;;;;;;1.17;0.70;;;;;;;14.71;55.18;93980.25;6148600;23;20179;-85
2023/11/06 09:16:36;;;;;;;1.65;0.90;;;;;;;14.87;54.76;93965.66;6147548;23;20694;-84
2023/11/06 09:19:02;;;;;;;1.30;0.77;;;;;;;15.10;54.61;93973.19;6150190;23;20159;-85
2023/11/06 09:21:29;;;;;;;2.90;1.00;;;;;;;15.25;54.52;93966.56;6151511;23;20181;-84
2023/11/06 09:23:55;;;;;;;1.90;0.90;;;;;;;15.29;54.11;93954.69;6150326;23;20205;-84
2023/11/06 09:26:22;;;;;;;0.98;0.80;;;;;;;15.32;54.31;93962.75;6148427;23;20225;-84
2023/11/06 09:28:48;;;;;;;1.23;0.70;;;;;;;15.36;54.17;93963.06;6148105;23;20229;-84
2023/11/06 09:31:17;;;;;;;1.83;0.90;;;;;;;15.52;53.82;93952.56;6149131;23;20218;-84
2023/11/06 09:33:44;;;;;;;1.23;0.90;;;;;;;15.52;54.04;93951.78;6148263;23;20199;-83
2023/11/06 09:36:11;;;;;;;1.73;0.80;;;;;;;15.53;54.33;93974.09;6151753;23;20183;-84
2023/11/06 09:38:37;;;;;;;1.55;0.80;;;;;;;15.50;54.39;93975.38;6152709;23;20175;-84
2023/11/06 09:41:04;;;;;;;1.40;0.70;;;;;;;15.50;54.55;93977.19;6152045;23;20182;-83
2023/11/06 09:43:31;;;;;;;2.10;0.90;;;;;;;15.58;54.16;93983.78;6152305;23;20364;-84
2023/11/06 09:45:57;;;;;;;1.42;0.70;;;;;;;15.43;52.64;93880.63;6151680;23;20505;-85
2023/11/06 09:48:31;;;;;;;1.40;0.70;;;;;;;15.50;52.75;93881.22;6151938;23;20514;-84
2023/11/06 09:51:03;;;;;;;1.13;0.80;;;;;;;15.64;53.13;93907.53;6151289;23;20484;-84
2023/11/06 09:53:31;;;;;;;2.58;1.00;;;;;;;15.79;53.23;93921.41;6157448;23;20230;-82
2023/11/06 09:55:58;;;;;;;1.33;0.90;;;;;;;15.87;52.80;93910.56;6157421;23;20179;-83
2023/11/06 09:58:24;;;;;;;3.78;0.80;;;;;;;15.87;52.15;93873.44;6152401;23;20923;-81
2023/11/06 10:00:51;;;;;;;1.95;1.40;;;;;;;15.85;51.75;93850.34;6151302;23;20185;-84
2023/11/06 10:03:18;;;;;;;3.92;3.40;;;;;;;15.91;52.32;93889.31;6153164;23;20583;-84
2023/11/06 10:05:44;;;;;;;1.50;0.80;;;;;;;15.99;52.13;93875.84;6153660;23;20182;-84
2023/11/06 10:08:28;;;;;;;2.92;0.95;;;;;;;16.03;51.60;93856.13;6152254;23;20203;-84
2023/11/06 10:10:59;;;;;;;1.88;0.80;;;;;;;16.06;51.05;93819.28;6151429;23;20170;-83
2023/11/06 10:13:26;;;;;;;2.80;0.90;;;;;;;16.08;51.39;93825.03;6151090;23;20245;-84
2023/11/06 10:15:52;;;;;;;1.17;0.73;;;;;;;16.07;51.20;93815.66;6148354;23;20716;-83
2023/11/06 10:18:20;;;;;;;0.80;0.60;;;;;;;15.89;50.15;93760.56;6148270;23;20175;-84
2023/11/06 10:20:50;;;;;;;1.05;0.70;;;;;;;15.74;50.38;93752.72;6147753;23;20179;-84
2023/11/06 10:23:25;;;;;;;1.23;0.82;;;;;;;15.73;50.64;93758.19;6149443;23;20199;-84
2023/11/06 10:25:53;;;;;;;1.52;0.77;;;;;;;15.59;50.90;93775.22;6149919;23;20163;-84
2023/11/06 10:28:22;;;;;;;1.10;0.70;;;;;;;15.42;50.42;93728.66;6148630;23;20233;-84
2023/11/06 10:30:54;;;;;;;1.88;0.85;;;;;;;15.43;50.93;93776.91;6148225;23;20182;-84
2023/11/06 10:33:21;;;;;;;2.13;0.70;;;;;;;15.48;50.82;93764.75;6150590;23;20199;-84
2023/11/06 10:35:48;;;;;;;1.40;0.70;;;;;;;15.49;50.66;93753.34;6152418;23;20233;-84
2023/11/06 10:38:33;;;;;;;1.67;1.00;;;;;;;15.53;51.07;93769.97;6152042;23;20182;-84
2023/11/06 10:41:01;;;;;;;2.67;2.47;;;;;;;15.67;50.86;93770.31;6149636;23;20201;-84
2023/11/06 10:43:29;;;;;;;0.70;0.70;;;;;;;15.68;50.83;93771.13;6147630;23;20198;-85
2023/11/06 10:45:56;;;;;;;1.17;0.80;;;;;;;15.63;51.18;93787.44;6150522;23;20722;-83
2023/11/06 10:48:33;;;;;;;0.75;0.65;;;;;;;15.46;51.07;93779.00;6147693;23;20202;-84
2023/11/06 10:51:00;;;;;;;0.98;0.70;;;;;;;15.64;51.37;93801.97;6149685;23;20214;-84
2023/11/06 10:53:32;;;;;;;0.98;0.55;;;;;;;15.85;51.84;93837.38;6149404;23;20199;-83
2023/11/06 10:56:02;;;;;;;0.60;0.60;;;;;;;15.98;51.43;93837.94;6150826;23;20163;-84
2023/11/06 10:58:30;;;;;;;1.63;0.60;;;;;;;15.79;51.18;93793.47;6151485;23;20260;-83
2023/11/06 11:00:58;;;;;;;1.83;0.80;;;;;;;15.74;51.70;93829.78;6151230;23;20864;-84
2023/11/06 11:03:26;;;;;;;0.80;0.70;;;;;;;15.60;51.36;93795.72;6150253;23;20222;-84
2023/11/06 11:05:54;;;;;;;1.08;0.70;;;;;;;15.49;51.82;93825.97;6151771;23;20202;-84
2023/11/06 11:08:21;;;;;;;0.95;0.55;;;;;;;15.68;51.68;93820.41;6151569;23;20246;-84
2023/11/06 11:10:50;;;;;;;1.15;0.77;;;;;;;15.80;51.37;93820.97;6149872;23;20252;-84
2023/11/06 11:13:18;;;;;;;1.75;0.73;;;;;;;15.98;51.00;93801.59;6146252;23;20209;-84
2023/11/06 11:15:44;;;;;;;3.83;1.95;;;;;;;15.91;51.19;93804.44;6147670;23;20198;-84
2023/11/06 11:18:14;;;;;;;4.72;2.60;;;;;;;15.87;50.78;93780.81;6148763;23;20174;-84
2023/11/06 11:20:58;;;;;;;1.23;1.02;;;;;;;16.04;51.67;93847.31;6147670;23;20179;-84
2023/11/06 11:23:42;;;;;;;1.17;0.80;;;;;;;16.10;51.16;93815.16;6150445;23;20203;-83
2023/11/06 11:26:10;;;;;;;1.25;0.80;;;;;;;16.30;51.48;93838.63;6150935;23;20179;-83
2023/11/06 11:28:54;;;;;;;1.40;0.90;;;;;;;16.46;50.98;93813.47;6154467;23;20229;-83
2023/11/06 11:31:35;;;;;;;1.55;0.80;;;;;;;16.60;50.84;93824.94;6153833;23;20270;-82
2023/11/06 11:34:02;;;;;;;1.05;0.70;;;;;;;16.64;49.98;93765.47;6152843;23;20194;-83
2023/11/06 11:36:33;;;;;;;0.90;0.70;;;;;;;16.76;49.46;93732.97;6151340;23;20186;-84